• Join FlightAware (Why Join?)
  • Login
  • US Flag 
08:24AM EDT


 

Airport Tracker/Info


-or-


 

Live Flight TrackerFlight Track Log ✈ RPA3123 ✈ 14-Jun-2013 ✈ KALB - KPHL

Flight Track Log - Related Links

Times and Time Zones

All times are in EDT time to prevent confusion due to time zone crossing. See the RPA3123 flight status page for this flight to view local times or setup timezone preferences in your user account.

Time Position Orientation Groundspeed Altitude Reporting Facility
EDT Latitude Longitude Course Direction KTS MPH feet Rate Location/Type
12:15PM 42.7653 -73.8061 220° Southwest 145 167 1,200  Level Boston Center
12:16PM 42.8089 -73.8183 348° North 187 215 2,400 1,800 Climbing Boston Center
12:17PM 42.8167 -73.8694 282° West 246 283 3,900 2,820 Climbing Boston Center
12:18PM 42.7333 -74.2482 270° West  Level FlightAware Approximate
12:18PM 42.8006 -73.9708 258° West 277 319 6,900  Level Boston Center
12:19PM 42.7054 -74.3460 220° Southwest  Level FlightAware Approximate
12:19PM 42.7825 -74.0781 257° West 288 331 10,100  Level Boston Center
12:20PM 42.6322 -74.4285 220° Southwest  Level FlightAware Approximate
12:20PM 42.7642 -74.1850 257° West 313 360 12,100  Level Boston Center
12:21PM 42.7350 -74.3169 253° West 337 388 15,100 1,920 Climbing Boston Center
12:22PM 42.6650 -74.3997 221° Southwest 354 407 16,000 420 Climbing Boston Center
12:23PM 42.5797 -74.5014 221° Southwest 373 429 16,100  Climbing Boston Center
12:24PM 42.4839 -74.6078 219° Southwest 373 429 16,100  Level Boston Center
12:25PM 42.4136 -74.6869 220° Southwest 373 429 16,100  Level Boston Center
12:26PM 42.3533 -74.7803 229° Southwest 361 415 16,100 -60 Level Boston Center
12:27PM 42.3422 -74.9119 264° West 326 375 16,000 -60 Descending Boston Center
12:28PM 42.3269 -75.0322 260° West 331 381 16,000  Level Boston Center
12:29PM 42.3094 -75.1633 260° West 336 387 16,000  Level Boston Center
12:30PM 42.2611 -75.2567 235° Southwest 327 376 16,000  Level Boston Center
12:32PM 42.0003 -75.3339 192° South 396 456 16,100  Climbing New York Center
12:33PM 41.9008 -75.3744 197° South 418 481 16,100 -60 Level New York Center
12:34PM 41.7886 -75.4194 197° South 430 495 16,000 -300 Descending New York Center
12:35PM 41.6681 -75.4667 196° South 430 495 15,600 -1,020 Descending New York Center
12:36PM 41.5561 -75.5086 196° South 421 484 14,000 -1,800 Descending New York Center
12:37PM 41.4628 -75.5464 197° South 408 470 12,100 -1,020 Descending New York Center
12:38PM 41.3750 -75.6092 208° Southwest 376 433 12,000 -60 Descending New York Center
12:39PM 41.2889 -75.6747 210° Southwest 371 427 12,000  Level New York Center
12:40PM 41.1803 -75.6861 185° South 347 399 12,000  Level New York Center
12:41PM 41.0822 -75.6872 180° South 352 405 12,000  Level New York Center
12:42PM 40.9928 -75.6864 180° South 358 412 12,000  Level New York Center
12:43PM 40.8842 -75.6867 180° South 363 418 12,000  Level New York Center
12:44PM 40.7864 -75.6853 179° South 363 418 12,000  Level New York Center
12:45PM 40.6864 -75.6861 180° South 369 425 12,000  Level New York Center
12:46PM 40.5994 -75.6717 173° South 362 417 12,000 -180 Level New York Center
12:47PM 40.5283 -75.5767 135° Southeast 335 386 11,700 -960 Descending New York Center
12:48PM 40.4761 -75.4775 125° Southeast 326 375 10,100 -900 Descending New York Center
12:49PM 40.4078 -75.4156 145° Southeast 313 360 10,000 -360 Descending New York Center
12:50PM 40.3272 -75.3911 167° South 308 354 9,400 -960 Descending New York Center
12:51PM 40.2431 -75.3636 166° South 315 362 8,100 -720 Descending New York Center
12:52PM 40.1711 -75.4406 219° Southwest 301 346 8,000 -420 Descending New York Center
12:53PM 40.0950 -75.4706 197° South 296 341 7,300 -540 Descending New York Center
12:54PM 40.0208 -75.4494 168° South 274 315 7,000 -360 Descending New York Center
12:55PM 39.9544 -75.4367 172° South 260 299 6,600 -540 Descending New York Center
12:56PM 39.9039 -75.4497 191° South 227 261 6,000 -360 Descending New York Center
12:57PM 39.8886 -75.5189 254° West 176 203 6,000 -660 Level New York Center
12:58PM 39.8667 -75.5833 246° West 191 220 4,900 -1,140 Descending Philadelphia TRACON
12:59PM 39.8167 -75.6000 194° South 203 234 4,000 -480 Descending Philadelphia TRACON
01:00PM 39.8000 -75.5667 123° Southeast 188 216 4,000 -360 Level Philadelphia TRACON
01:01PM 39.8167 -75.5000 72° East 179 206 3,400 -780 Descending Philadelphia TRACON
01:02PM 39.8333 -75.4333 72° East 170 196 2,500 -900 Descending Philadelphia TRACON